Germantown, Wisconsin
Current Conditions -  °F | °C
As of 7:45 AM on Friday 31 Oct 2014 (Local Time) from KMWC Reporting Station
Overcast Overcast  
Wind Chill: 21°   Ceiling: 9500
Heat Index: 34°   Visibility: 10mi
Dew Point: 27°   Wind: 25mph
Humidity: 75%   Direction: 340°NNW
Pressure: 30.13"   Gusts: 33mph
Location:  43.22°N, 88.12°W
Report Text: KMWC 311245Z AUTO 34022G29KT 10SM OVC095 01/M03 A3013
Loading
Personal Weather Stations






























Interactive Weather Map
Tropical Storm Tracking
New forecast layout! Learn more

10-Day Weather Forecast

Advertisements
Track Severe Weather on mobile